Time;durP1;ratioP1;P1;durP2;ratioP2;P2;SDS_P1;SDS_P2;PMS_P1;PMS_P2;Temp;Humidity;BMP_temperature;BMP_pressure;BME280_temperature;BME280_humidity;BME280_pressure;Samples;Min_cycle;Max_cycle;Signal;HPM_P1;HPM_P2
2022/12/18 00:01:20;;;;;;;7.70;3.35;;;-7.40;38.30;;;;;;5022889;28;20201;-70
2022/12/18 00:03:46;;;;;;;5.50;1.80;;;-7.00;38.00;;;;;;5022137;28;20167;-71
2022/12/18 00:06:11;;;;;;;5.60;1.93;;;-6.90;37.10;;;;;;5021433;28;20201;-70
2022/12/18 00:08:37;;;;;;;4.90;1.30;;;-6.70;37.30;;;;;;5017127;28;20184;-71
2022/12/18 00:11:04;;;;;;;6.70;3.10;;;-6.50;35.40;;;;;;5014029;28;20577;-70
2022/12/18 00:13:30;;;;;;;4.97;1.40;;;-6.20;35.50;;;;;;5022120;28;20177;-71
2022/12/18 00:16:00;;;;;;;5.60;2.13;;;-6.30;34.60;;;;;;5017374;28;20262;-71
2022/12/18 00:18:26;;;;;;;5.88;2.33;;;-6.20;34.20;;;;;;5014662;28;20205;-73
2022/12/18 00:20:51;;;;;;;5.10;1.50;;;-6.10;34.00;;;;;;5018551;28;20395;-73
2022/12/18 00:23:17;;;;;;;5.30;1.60;;;-5.80;32.90;;;;;;5017223;28;20177;-72
2022/12/18 00:25:42;;;;;;;4.93;1.27;;;-5.50;32.80;;;;;;5016875;28;20264;-73
2022/12/18 00:28:08;;;;;;;5.30;1.70;;;-5.50;31.70;;;;;;5015628;28;20197;-73
2022/12/18 00:30:34;;;;;;;6.37;3.20;;;-5.30;31.30;;;;;;5010190;28;20185;-72
2022/12/18 00:32:59;;;;;;;6.93;2.37;;;-5.20;30.20;;;;;;5018728;28;20179;-71
2022/12/18 00:35:25;;;;;;;4.87;1.30;;;-5.40;30.40;;;;;;5018859;28;20240;-73
2022/12/18 00:37:51;;;;;;;5.77;1.90;;;-5.80;31.00;;;;;;5017777;28;20716;-72
2022/12/18 00:40:16;;;;;;;4.80;1.20;;;-6.00;31.50;;;;;;5019973;28;20842;-72
2022/12/18 00:42:57;;;;;;;7.87;3.07;;;-6.50;32.60;;;;;;5018198;28;20192;-73
2022/12/18 00:45:30;;;;;;;5.80;2.10;;;-6.60;33.30;;;;;;5018211;28;20177;-73
2022/12/18 00:47:56;;;;;;;13.18;2.78;;;-6.50;32.50;;;;;;5016895;28;20263;-71
2022/12/18 00:50:24;;;;;;;5.38;1.83;;;-6.50;32.90;;;;;;5016188;28;20204;-72
2022/12/18 00:52:50;;;;;;;8.60;4.32;;;-6.80;32.80;;;;;;5019168;28;20223;-71
2022/12/18 00:55:16;;;;;;;5.00;1.50;;;-6.40;32.80;;;;;;5019168;28;20700;-72
2022/12/18 00:57:42;;;;;;;6.45;2.35;;;-6.30;32.10;;;;;;5019463;28;20463;-71
2022/12/18 01:00:12;;;;;;;4.80;1.30;;;-6.30;31.90;;;;;;5019952;28;20677;-72
2022/12/18 01:02:39;;;;;;;5.13;1.90;;;-6.30;31.90;;;;;;5018063;28;20436;-71
2022/12/18 01:05:05;;;;;;;10.57;4.82;;;-6.30;32.10;;;;;;5020588;28;20200;-71
2022/12/18 01:07:30;;;;;;;8.65;3.50;;;-6.70;32.80;;;;;;5020876;28;20280;-70
2022/12/18 01:09:56;;;;;;;10.00;5.10;;;-6.80;33.10;;;;;;5020679;28;20216;-71
2022/12/18 01:12:21;;;;;;;5.63;2.27;;;-6.70;33.00;;;;;;5020856;28;20185;-72
2022/12/18 01:14:47;;;;;;;5.33;2.03;;;-6.80;32.70;;;;;;5022118;28;20189;-72
2022/12/18 01:17:13;;;;;;;5.77;2.23;;;-7.50;34.40;;;;;;5014995;28;20197;-72
2022/12/18 01:19:38;;;;;;;11.50;3.40;;;-7.40;35.10;;;;;;5023211;28;20540;-71
2022/12/18 01:22:04;;;;;;;4.90;1.93;;;-6.90;34.00;;;;;;5023448;28;20192;-72
2022/12/18 01:24:29;;;;;;;5.20;1.70;;;-7.10;33.90;;;;;;5017138;28;20189;-72
2022/12/18 01:26:57;;;;;;;6.97;3.30;;;-6.80;33.10;;;;;;5021757;28;20205;-72
2022/12/18 01:29:22;;;;;;;4.75;1.35;;;-6.80;33.00;;;;;;5022464;28;20178;-72
2022/12/18 01:31:48;;;;;;;4.67;1.37;;;-6.50;32.20;;;;;;5020318;28;20208;-72
2022/12/18 01:34:14;;;;;;;7.40;3.93;;;-6.20;31.40;;;;;;5022338;28;20200;-72
2022/12/18 01:36:40;;;;;;;4.80;1.50;;;-6.30;31.00;;;;;;5019038;28;20715;-72
2022/12/18 01:39:11;;;;;;;4.60;1.27;;;-6.40;31.40;;;;;;5021358;28;20216;-72
2022/12/18 01:44:59;;;;;;;5.50;2.20;;;-6.10;30.90;;;;;;5018921;28;20745;-72
2022/12/18 01:47:32;;;;;;;17.00;3.15;;;-6.00;30.30;;;;;;5018789;28;20201;-71
2022/12/18 01:50:01;;;;;;;8.05;2.40;;;-6.20;31.10;;;;;;5022678;28;20642;-73
2022/12/18 01:52:30;;;;;;;4.78;1.30;;;-6.10;30.60;;;;;;5023103;28;20192;-72
2022/12/18 01:54:56;;;;;;;5.10;1.58;;;-6.20;31.90;;;;;;5019654;28;20201;-72
2022/12/18 01:57:24;;;;;;;5.88;2.65;;;-6.10;30.90;;;;;;5018518;28;22172;-73
2022/12/18 01:59:52;;;;;;;5.75;2.00;;;-5.90;30.70;;;;;;5018059;28;20178;-71
2022/12/18 02:02:19;;;;;;;7.00;2.78;;;-5.70;30.50;;;;;;5017808;28;20264;-72
2022/12/18 02:04:45;;;;;;;5.82;2.38;;;-5.50;30.40;;;;;;5019166;28;20204;-72
2022/12/18 02:07:41;;;;;;;5.13;1.57;;;-5.60;30.20;;;;;;5017110;28;20201;-70
2022/12/18 02:10:28;;;;;;;5.03;1.45;;;-5.60;30.20;;;;;;5014692;28;20561;-73
2022/12/18 02:13:14;;;;;;;5.90;2.00;;;-5.60;30.40;;;;;;5016806;28;20223;-71
2022/12/18 02:15:57;;;;;;;5.10;1.40;;;-5.90;30.80;;;;;;5011026;28;20217;-73
2022/12/18 02:18:31;;;;;;;6.85;2.30;;;-6.10;31.60;;;;;;5019057;28;20240;-72
2022/12/18 02:21:17;;;;;;;5.05;1.40;;;-6.10;32.10;;;;;;5016221;28;20579;-73
2022/12/18 02:24:04;;;;;;;5.10;1.45;;;-6.20;32.20;;;;;;5013206;28;20189;-72
2022/12/18 02:26:40;;;;;;;7.82;2.65;;;-6.40;32.00;;;;;;5018787;28;20197;-71
2022/12/18 02:29:11;;;;;;;4.97;1.30;;;-6.10;31.80;;;;;;5019776;28;20177;-73
2022/12/18 02:31:46;;;;;;;5.38;1.70;;;-6.10;31.50;;;;;;5018799;28;20247;-73
2022/12/18 02:34:13;;;;;;;5.43;1.83;;;-6.40;32.20;;;;;;5019380;28;20176;-71
2022/12/18 02:36:42;;;;;;;4.88;1.23;;;-6.40;32.10;;;;;;5020212;28;20213;-71
2022/12/18 02:39:11;;;;;;;5.63;2.15;;;-6.40;32.30;;;;;;5025557;28;20256;-71
2022/12/18 02:41:37;;;;;;;5.40;1.67;;;-6.80;32.80;;;;;;5024170;28;20194;-70
2022/12/18 02:44:09;;;;;;;9.43;4.00;;;-6.60;32.80;;;;;;5023835;28;20174;-71
2022/12/18 02:46:41;;;;;;;8.30;2.90;;;-6.30;32.10;;;;;;5021528;28;20255;-71
2022/12/18 02:49:29;;;;;;;5.28;1.52;;;-6.10;31.40;;;;;;5023612;28;20252;-71
2022/12/18 02:52:16;;;;;;;5.75;2.15;;;-6.40;31.90;;;;;;5002523;28;20951;-71
2022/12/18 02:54:51;;;;;;;5.28;1.67;;;-6.20;32.10;;;;;;5016792;28;20256;-72
2022/12/18 02:57:47;;;;;;;5.50;1.98;;;-5.80;31.90;;;;;;5021340;28;20561;-71
2022/12/18 03:00:16;;;;;;;5.05;1.50;;;-5.70;31.00;;;;;;5023439;28;20157;-72
2022/12/18 03:02:46;;;;;;;6.55;2.67;;;-5.80;30.80;;;;;;5019592;28;20182;-71
2022/12/18 03:05:22;;;;;;;5.35;1.52;;;-5.80;30.60;;;;;;5017061;28;20549;-69
2022/12/18 03:07:55;;;;;;;8.20;2.50;;;-6.00;30.60;;;;;;5014343;28;20295;-71
2022/12/18 03:10:27;;;;;;;5.30;1.70;;;-6.00;31.30;;;;;;5021029;28;20185;-71
2022/12/18 03:13:02;;;;;;;5.00;1.30;;;-5.90;31.30;;;;;;5020572;28;20664;-72
2022/12/18 03:15:36;;;;;;;5.00;1.33;;;-5.80;31.40;;;;;;5015248;28;20199;-71
2022/12/18 03:18:12;;;;;;;4.93;1.30;;;-5.40;30.10;;;;;;5012692;28;20291;-72
2022/12/18 03:20:41;;;;;;;5.10;1.45;;;-5.40;30.30;;;;;;5009256;28;20687;-72
2022/12/18 03:23:20;;;;;;;11.43;3.65;;;-5.90;30.70;;;;;;5019473;28;20181;-71
2022/12/18 03:25:49;;;;;;;10.30;3.53;;;-6.40;32.60;;;;;;5016487;28;20208;-71
2022/12/18 03:28:19;;;;;;;4.90;1.25;;;-6.10;31.80;;;;;;5019082;28;20665;-72
2022/12/18 03:30:47;;;;;;;7.15;2.25;;;-6.20;32.60;;;;;;5014281;28;20182;-72
2022/12/18 03:33:28;;;;;;;7.60;2.15;;;-6.00;32.10;;;;;;5015053;28;20196;-72
2022/12/18 03:35:54;;;;;;;5.18;1.50;;;-5.80;31.50;;;;;;5014900;28;20189;-71
2022/12/18 03:38:19;;;;;;;5.00;1.30;;;-5.90;31.30;;;;;;5018679;28;20224;-72
2022/12/18 03:41:17;;;;;;;5.13;1.47;;;-6.40;31.60;;;;;;5016719;28;21481;-72
2022/12/18 03:43:48;;;;;;;4.95;1.30;;;-7.00;34.40;;;;;;4976826;28;20201;-71
2022/12/18 03:46:14;;;;;;;4.90;1.20;;;-7.50;37.00;;;;;;4981082;28;20265;-71
2022/12/18 03:48:47;;;;;;;5.00;1.30;;;-7.10;35.90;;;;;;4979479;28;20243;-72
2022/12/18 03:51:22;;;;;;;5.88;2.05;;;-6.90;35.00;;;;;;4962115;28;20190;-72
2022/12/18 03:53:57;;;;;;;6.68;2.40;;;-7.00;35.20;;;;;;4973811;28;20277;-72
2022/12/18 03:56:26;;;;;;;6.65;2.05;;;-6.80;35.30;;;;;;4976810;28;20312;-72
2022/12/18 03:58:53;;;;;;;5.10;1.40;;;-6.90;34.90;;;;;;4978058;28;20733;-72
2022/12/18 04:01:23;;;;;;;5.90;1.83;;;-6.40;34.50;;;;;;4975376;28;20233;-69
2022/12/18 04:03:49;;;;;;;6.13;1.70;;;-6.30;32.70;;;;;;4975951;28;20183;-72
2022/12/18 04:06:16;;;;;;;12.68;3.40;;;-6.20;33.20;;;;;;4975908;28;20657;-72
2022/12/18 04:08:42;;;;;;;5.72;2.25;;;-5.80;31.60;;;;;;4976910;28;20194;-72
2022/12/18 04:11:07;;;;;;;5.93;1.88;;;-6.20;31.60;;;;;;4977002;28;20286;-72
2022/12/18 04:13:36;;;;;;;5.50;2.07;;;-6.30;32.10;;;;;;4978386;28;20254;-72
2022/12/18 04:16:02;;;;;;;4.97;1.40;;;-6.20;32.40;;;;;;4979141;28;20246;-72
2022/12/18 04:18:28;;;;;;;10.57;3.58;;;-6.30;32.40;;;;;;4983433;28;20217;-72
2022/12/18 04:20:53;;;;;;;7.30;2.70;;;-6.10;32.40;;;;;;5012195;28;20181;-72
2022/12/18 04:23:19;;;;;;;5.63;2.17;;;-5.90;31.60;;;;;;5002413;28;20188;-72
2022/12/18 04:25:47;;;;;;;6.40;2.50;;;-5.80;31.00;;;;;;5014826;28;20180;-72
2022/12/18 04:28:12;;;;;;;4.85;1.25;;;-5.60;31.30;;;;;;5016727;28;20546;-72
2022/12/18 04:30:38;;;;;;;4.83;1.20;;;-5.60;31.10;;;;;;5015735;28;20193;-72
2022/12/18 04:33:03;;;;;;;9.00;2.10;;;-5.50;31.10;;;;;;5015074;28;20702;-69
2022/12/18 04:35:29;;;;;;;7.17;2.67;;;-5.40;30.40;;;;;;5011031;28;20196;-72
2022/12/18 04:37:55;;;;;;;8.27;4.03;;;-5.20;29.90;;;;;;5014915;28;20237;-71
2022/12/18 04:40:21;;;;;;;5.93;1.50;;;-5.10;29.70;;;;;;5016287;28;20208;-72
2022/12/18 04:42:46;;;;;;;5.10;1.47;;;-5.20;30.00;;;;;;5016053;28;20176;-72
2022/12/18 04:45:12;;;;;;;10.67;5.13;;;-5.30;30.30;;;;;;5012710;28;20232;-72
2022/12/18 04:47:37;;;;;;;8.90;3.50;;;-5.40;31.70;;;;;;5012778;28;20224;-72
2022/12/18 04:50:04;;;;;;;6.80;2.07;;;-5.70;32.00;;;;;;5015205;28;20239;-72
2022/12/18 04:52:32;;;;;;;4.90;1.20;;;-5.60;32.10;;;;;;5007269;28;20209;-72
2022/12/18 04:54:58;;;;;;;5.00;1.40;;;-5.60;32.80;;;;;;5016453;28;20188;-71
2022/12/18 04:57:23;;;;;;;10.53;2.60;;;-5.70;32.60;;;;;;5014471;28;20209;-72
2022/12/18 04:59:49;;;;;;;5.73;2.13;;;-5.70;32.40;;;;;;5015983;28;20541;-73
2022/12/18 05:02:14;;;;;;;5.10;1.40;;;-5.50;31.80;;;;;;5016506;28;20199;-72
2022/12/18 05:04:40;;;;;;;7.40;3.20;;;-5.50;31.30;;;;;;5015108;28;20185;-71
2022/12/18 05:07:06;;;;;;;18.77;2.53;;;-5.70;31.40;;;;;;5008812;28;20220;-72
2022/12/18 05:09:31;;;;;;;5.40;1.70;;;-5.80;31.50;;;;;;5016644;28;20245;-72
2022/12/18 05:11:57;;;;;;;5.50;1.70;;;-5.80;31.50;;;;;;5016829;28;20201;-72
2022/12/18 05:14:22;;;;;;;5.40;1.80;;;-5.70;31.00;;;;;;5016903;28;20181;-72
2022/12/18 05:16:48;;;;;;;5.70;1.87;;;-5.80;31.00;;;;;;5010357;28;20290;-70
2022/12/18 05:19:14;;;;;;;4.90;1.30;;;-6.00;31.30;;;;;;5016685;28;20213;-72
2022/12/18 05:21:39;;;;;;;4.90;1.30;;;-5.90;31.30;;;;;;5016536;28;20207;-72
2022/12/18 05:24:05;;;;;;;5.00;1.40;;;-6.00;31.80;;;;;;5022302;28;20173;-71
2022/12/18 05:26:31;;;;;;;6.50;2.30;;;-6.50;33.30;;;;;;5020137;28;20192;-72
2022/12/18 05:28:56;;;;;;;4.90;1.30;;;-6.20;32.80;;;;;;5019038;28;20431;-70
2022/12/18 05:31:22;;;;;;;5.10;1.30;;;-6.20;32.10;;;;;;5019764;28;20185;-72
2022/12/18 05:33:51;;;;;;;6.80;2.47;;;-5.90;31.30;;;;;;5019985;28;20637;-72
2022/12/18 05:36:16;;;;;;;5.00;1.30;;;-5.80;31.10;;;;;;5020000;28;20478;-72
2022/12/18 05:38:42;;;;;;;5.10;1.50;;;-6.10;31.70;;;;;;5017436;28;20204;-72
2022/12/18 05:41:08;;;;;;;5.67;1.50;;;-6.10;31.60;;;;;;5019927;28;20173;-72
2022/12/18 05:43:37;;;;;;;4.88;1.33;;;-5.90;30.60;;;;;;5019945;28;20188;-72
2022/12/18 05:46:13;;;;;;;11.73;3.85;;;-5.90;30.50;;;;;;5020564;28;20193;-72
2022/12/18 05:48:38;;;;;;;6.57;2.58;;;-6.00;30.80;;;;;;5016224;28;20181;-72
2022/12/18 05:51:09;;;;;;;6.33;2.10;;;-6.00;30.40;;;;;;5020079;28;20216;-72
2022/12/18 05:53:36;;;;;;;7.55;2.55;;;-6.00;30.10;;;;;;5019697;28;20424;-71
2022/12/18 05:56:05;;;;;;;4.82;1.30;;;-6.10;30.00;;;;;;5020043;28;20201;-73
2022/12/18 05:58:31;;;;;;;7.90;2.72;;;-6.00;30.20;;;;;;5017007;28;20333;-72
2022/12/18 06:00:57;;;;;;;4.80;1.30;;;-6.00;29.70;;;;;;5018983;28;20189;-72
2022/12/18 06:03:23;;;;;;;4.80;1.33;;;-6.30;30.50;;;;;;5020748;28;20189;-73
2022/12/18 06:05:48;;;;;;;4.90;1.47;;;-6.50;31.30;;;;;;5020682;28;20177;-72
2022/12/18 06:08:14;;;;;;;5.27;1.87;;;-6.40;31.10;;;;;;5019336;28;20408;-72
2022/12/18 06:10:41;;;;;;;5.67;1.93;;;-6.00;30.30;;;;;;5018796;28;20191;-72
2022/12/18 06:13:07;;;;;;;4.80;1.30;;;-6.10;30.00;;;;;;5018606;28;20244;-72
2022/12/18 06:15:35;;;;;;;4.90;1.58;;;-6.10;30.30;;;;;;5019769;28;20220;-71
2022/12/18 06:18:01;;;;;;;5.28;1.85;;;-6.20;31.90;;;;;;5018416;28;20213;-72
2022/12/18 06:20:26;;;;;;;6.27;2.20;;;-6.20;31.50;;;;;;5014930;28;20185;-72
2022/12/18 06:22:52;;;;;;;5.00;1.60;;;-6.10;30.90;;;;;;5017392;28;20174;-72
2022/12/18 06:25:18;;;;;;;4.90;1.47;;;-6.00;30.40;;;;;;5016918;28;20173;-73
2022/12/18 06:27:43;;;;;;;4.93;1.37;;;-6.40;31.10;;;;;;5017735;28;20954;-72
2022/12/18 06:30:10;;;;;;;5.50;1.90;;;-6.30;32.50;;;;;;5016067;28;20197;-71
2022/12/18 06:32:36;;;;;;;12.02;2.83;;;-6.20;32.00;;;;;;5011445;28;20189;-72
2022/12/18 06:35:01;;;;;;;4.93;1.30;;;-6.30;32.20;;;;;;5009438;28;20531;-72
2022/12/18 06:37:27;;;;;;;9.20;3.30;;;-6.60;33.90;;;;;;5018917;28;20248;-72
2022/12/18 06:39:53;;;;;;;6.33;1.90;;;-6.70;33.40;;;;;;5019084;28;20200;-72
2022/12/18 06:42:21;;;;;;;5.15;1.58;;;-6.50;34.00;;;;;;5016253;28;20264;-72
2022/12/18 06:44:47;;;;;;;5.43;1.95;;;-6.30;33.10;;;;;;5016614;28;20185;-73
2022/12/18 06:47:12;;;;;;;4.77;1.20;;;-6.40;32.80;;;;;;5018877;28;20207;-72
2022/12/18 06:49:38;;;;;;;5.00;1.50;;;-6.60;33.00;;;;;;5018318;28;20178;-73
2022/12/18 06:52:04;;;;;;;4.87;1.30;;;-6.60;32.90;;;;;;5016461;28;20242;-72
2022/12/18 06:54:29;;;;;;;5.40;1.73;;;-6.40;32.80;;;;;;5013190;28;20185;-73
2022/12/18 06:56:58;;;;;;;4.80;1.20;;;-6.20;31.90;;;;;;5017955;28;20197;-72
2022/12/18 06:59:23;;;;;;;4.70;1.25;;;-6.50;32.30;;;;;;5020776;28;20193;-72
2022/12/18 07:01:49;;;;;;;4.87;1.40;;;-6.60;33.40;;;;;;5018760;28;20192;-71
2022/12/18 07:04:15;;;;;;;4.70;1.20;;;-6.40;31.80;;;;;;5016550;28;20189;-72
2022/12/18 07:06:40;;;;;;;4.80;1.70;;;-6.40;31.40;;;;;;5011008;28;20582;-72
2022/12/18 07:09:06;;;;;;;5.00;1.60;;;-6.40;32.10;;;;;;5017518;28;20185;-72
2022/12/18 07:11:35;;;;;;;4.70;1.30;;;-6.30;31.20;;;;;;5018036;28;20185;-71
2022/12/18 07:14:00;;;;;;;4.90;1.40;;;-6.00;31.00;;;;;;5010335;28;20193;-72
2022/12/18 07:16:28;;;;;;;4.70;1.20;;;-6.10;30.80;;;;;;5017154;28;20247;-72
2022/12/18 07:18:55;;;;;;;5.10;1.60;;;-5.90;30.20;;;;;;5013089;28;20197;-77
2022/12/18 07:21:21;;;;;;;4.80;1.30;;;-5.70;29.90;;;;;;5010186;28;20186;-76
2022/12/18 07:23:47;;;;;;;4.80;1.40;;;-5.90;30.10;;;;;;5011833;28;20262;-74
2022/12/18 07:26:14;;;;;;;4.73;1.30;;;-6.10;30.00;;;;;;5014861;28;20209;-73
2022/12/18 07:28:41;;;;;;;4.80;1.30;;;-6.60;30.90;;;;;;5014629;28;20209;-72
2022/12/18 07:31:09;;;;;;;4.90;1.40;;;-6.60;32.10;;;;;;5012086;28;20653;-72
2022/12/18 07:33:35;;;;;;;4.78;1.20;;;-6.40;31.40;;;;;;5014762;28;20213;-73
2022/12/18 07:36:06;;;;;;;4.95;1.40;;;-6.20;30.90;;;;;;5014149;28;20294;-72
2022/12/18 07:38:33;;;;;;;7.72;3.92;;;-6.10;30.80;;;;;;5014559;28;20268;-72
2022/12/18 07:41:07;;;;;;;5.20;1.77;;;-6.30;31.00;;;;;;5013214;28;20208;-72
2022/12/18 07:43:33;;;;;;;5.72;2.28;;;-6.10;30.50;;;;;;5014429;28;20200;-72
2022/12/18 07:45:59;;;;;;;5.00;1.50;;;-6.30;30.60;;;;;;5014336;28;20197;-72
2022/12/18 07:48:25;;;;;;;5.63;1.77;;;-6.20;30.90;;;;;;5015612;28;20517;-72
2022/12/18 07:50:50;;;;;;;4.87;1.30;;;-6.20;31.00;;;;;;5015418;28;20236;-72
2022/12/18 07:53:16;;;;;;;4.90;1.37;;;-6.00;30.50;;;;;;5013996;28;20189;-73
2022/12/18 07:55:42;;;;;;;4.97;1.37;;;-6.10;30.10;;;;;;5012435;28;20268;-72
2022/12/18 07:58:08;;;;;;;4.85;1.30;;;-7.10;32.90;;;;;;5015082;28;20223;-72
2022/12/18 08:00:34;;;;;;;5.40;1.90;;;-6.80;32.30;;;;;;5014174;28;20189;-73
2022/12/18 08:03:00;;;;;;;5.10;1.60;;;-7.10;32.60;;;;;;5012878;28;20235;-72
2022/12/18 08:05:27;;;;;;;4.87;1.30;;;-6.90;32.10;;;;;;5014825;28;20174;-73
2022/12/18 08:07:54;;;;;;;8.10;4.55;;;-7.00;31.60;;;;;;5012049;28;20193;-71
2022/12/18 08:10:20;;;;;;;4.85;1.30;;;-7.00;32.00;;;;;;5011778;28;20195;-72
2022/12/18 08:12:49;;;;;;;6.30;2.20;;;-6.90;31.70;;;;;;5011547;28;20173;-73
2022/12/18 08:15:15;;;;;;;6.47;1.88;;;-6.80;31.60;;;;;;5008648;28;20216;-72
2022/12/18 08:17:40;;;;;;;4.97;1.50;;;-6.60;31.20;;;;;;5012208;28;20542;-71
2022/12/18 08:20:06;;;;;;;6.17;2.37;;;-6.50;31.10;;;;;;5011440;28;20657;-75
2022/12/18 08:22:38;;;;;;;4.80;1.25;;;-6.40;31.10;;;;;;5011394;28;20177;-71
2022/12/18 08:25:04;;;;;;;5.47;1.85;;;-6.40;31.10;;;;;;5008965;28;20748;-71
2022/12/18 08:27:30;;;;;;;5.03;1.65;;;-6.40;31.90;;;;;;5012395;28;20735;-76
2022/12/18 08:29:57;;;;;;;4.90;1.40;;;-6.30;31.80;;;;;;5010166;28;20189;-73
2022/12/18 08:32:27;;;;;;;6.10;2.22;;;-6.30;31.80;;;;;;5011052;28;20443;-72
2022/12/18 08:34:52;;;;;;;6.07;2.65;;;-6.50;32.20;;;;;;5003885;28;20937;-72
2022/12/18 08:37:18;;;;;;;5.03;1.50;;;-6.50;32.10;;;;;;5011499;28;20220;-72
2022/12/18 08:39:44;;;;;;;7.37;2.60;;;-6.40;31.80;;;;;;5012849;28;20173;-71
2022/12/18 08:44:54;;;;;;;5.05;1.50;;;-5.90;31.20;;;;;;5005610;28;20220;-74
2022/12/18 08:47:19;;;;;;;6.70;1.83;;;-6.10;32.00;;;;;;5012516;28;20229;-72
2022/12/18 08:49:45;;;;;;;4.90;1.30;;;-6.30;32.10;;;;;;5011377;28;20177;-72
2022/12/18 08:52:13;;;;;;;5.00;1.50;;;-6.20;32.30;;;;;;5007818;28;20227;-74
2022/12/18 08:54:39;;;;;;;4.80;1.25;;;-5.80;31.50;;;;;;5011603;28;20188;-74
2022/12/18 08:57:05;;;;;;;7.00;1.87;;;-5.90;31.40;;;;;;5010527;28;20205;-73
2022/12/18 08:59:30;;;;;;;7.13;2.60;;;-5.70;31.50;;;;;;5015807;28;20251;-73
2022/12/18 09:01:56;;;;;;;7.10;2.40;;;-5.50;30.90;;;;;;5016287;28;20232;-75
2022/12/18 09:04:22;;;;;;;4.70;1.33;;;-5.20;31.00;;;;;;5016315;28;20272;-75
2022/12/18 09:06:48;;;;;;;4.97;1.90;;;-5.10;30.20;;;;;;5018560;28;20204;-81
2022/12/18 09:09:13;;;;;;;4.93;1.57;;;-5.40;30.70;;;;;;5022726;28;20193;-79
2022/12/18 09:11:39;;;;;;;4.80;1.70;;;-5.30;30.80;;;;;;5028837;28;20189;-77
2022/12/18 09:14:05;;;;;;;6.60;2.40;;;-5.00;30.90;;;;;;5025521;28;20193;-78
2022/12/18 09:16:31;;;;;;;4.60;1.50;;;-5.00;30.80;;;;;;5025906;28;20205;-77
2022/12/18 09:19:01;;;;;;;5.55;2.30;;;-5.00;31.10;;;;;;5019243;28;20502;-77
2022/12/18 09:21:32;;;;;;;4.53;1.42;;;-5.00;31.60;;;;;;5017972;28;20181;-77
2022/12/18 09:23:58;;;;;;;4.35;1.20;;;-4.90;31.90;;;;;;5017477;28;20185;-78
2022/12/18 09:26:25;;;;;;;10.33;4.60;;;-5.00;32.30;;;;;;5009900;28;20661;-77
2022/12/18 09:28:51;;;;;;;4.60;1.55;;;-5.20;33.00;;;;;;5008332;28;20448;-76
2022/12/18 09:31:20;;;;;;;4.80;1.80;;;-5.50;33.60;;;;;;5011587;28;20193;-79
2022/12/18 09:33:46;;;;;;;7.90;2.70;;;-5.40;33.90;;;;;;5010567;28;20781;-78
2022/12/18 09:36:14;;;;;;;4.60;1.80;;;-5.80;34.90;;;;;;5000718;28;20220;-76
2022/12/18 09:38:40;;;;;;;4.28;1.33;;;-6.00;35.70;;;;;;5008287;28;20567;-77
2022/12/18 09:41:40;;;;;;;4.20;1.20;;;-5.80;35.90;;;;;;5012181;28;20266;-76
2022/12/18 09:44:18;;;;;;;4.28;1.30;;;-6.00;37.20;;;;;;5011350;28;20226;-75
2022/12/18 09:46:52;;;;;;;7.80;2.30;;;-6.30;38.00;;;;;;5010026;28;20196;-75
2022/12/18 09:49:22;;;;;;;7.45;2.65;;;-6.10;38.80;;;;;;5006503;28;20182;-74
2022/12/18 09:52:23;;;;;;;6.45;2.58;;;-5.80;38.60;;;;;;5013008;28;20269;-76
2022/12/18 09:55:05;;;;;;;4.28;1.23;;;-5.60;38.00;;;;;;5012205;28;20181;-77
2022/12/18 09:57:37;;;;;;;4.50;1.40;;;-5.30;38.00;;;;;;5005405;28;20203;-77
2022/12/18 10:00:18;;;;;;;4.38;1.30;;;-4.90;37.60;;;;;;5012767;28;20196;-75
2022/12/18 10:02:45;;;;;;;7.10;3.40;;;-4.30;35.30;;;;;;5009545;28;20174;-77
2022/12/18 10:05:16;;;;;;;4.97;1.63;;;-4.40;35.70;;;;;;5011297;28;20189;-76
2022/12/18 10:08:20;;;;;;;4.40;1.20;;;-4.40;35.40;;;;;;5006780;28;20275;-79
2022/12/18 10:10:52;;;;;;;4.65;1.40;;;-5.00;37.80;;;;;;5011630;28;20211;-80
2022/12/18 10:13:25;;;;;;;4.78;1.50;;;-4.90;37.80;;;;;;5013933;28;20220;-74
2022/12/18 10:16:33;;;;;;;4.97;1.60;;;-4.80;38.80;;;;;;5008707;28;20192;-73
2022/12/18 10:19:09;;;;;;;4.70;1.40;;;-4.80;39.60;;;;;;5006806;28;20246;-73
2022/12/18 10:21:46;;;;;;;5.90;1.95;;;-3.90;37.60;;;;;;5014911;28;20181;-71
2022/12/18 10:24:22;;;;;;;8.10;4.10;;;-3.90;37.50;;;;;;5009546;28;20266;-72
2022/12/18 10:26:47;;;;;;;5.15;1.60;;;-3.50;36.60;;;;;;5014043;28;20189;-72
2022/12/18 10:29:14;;;;;;;4.70;1.20;;;-2.60;34.80;;;;;;5015083;28;20369;-72
2022/12/18 10:31:40;;;;;;;4.90;1.40;;;-2.20;33.00;;;;;;5015112;28;20176;-71
2022/12/18 10:34:11;;;;;;;6.28;2.28;;;-2.50;32.80;;;;;;5011915;28;20195;-70
2022/12/18 10:36:38;;;;;;;4.80;1.30;;;-3.40;36.40;;;;;;5011357;28;20557;-72
2022/12/18 10:39:22;;;;;;;5.30;1.65;;;-2.60;35.30;;;;;;5013913;28;20300;-72
2022/12/18 10:41:51;;;;;;;5.30;1.80;;;-2.00;34.40;;;;;;5012588;28;20177;-71
2022/12/18 10:44:22;;;;;;;4.90;1.50;;;-2.00;33.70;;;;;;5011230;28;20185;-72
2022/12/18 10:46:55;;;;;;;5.32;1.88;;;-1.90;34.80;;;;;;5012846;28;20185;-72
2022/12/18 10:49:23;;;;;;;4.63;1.20;;;-2.00;35.60;;;;;;5012871;28;20208;-72
2022/12/18 10:51:49;;;;;;;5.30;2.20;;;-2.10;36.10;;;;;;5010412;28;20185;-72
2022/12/18 10:54:22;;;;;;;7.20;1.83;;;-2.10;36.80;;;;;;5011850;28;20267;-72
2022/12/18 10:56:48;;;;;;;5.47;2.05;;;-1.70;35.40;;;;;;5013362;28;20262;-72
2022/12/18 10:59:16;;;;;;;7.07;2.25;;;-1.50;35.70;;;;;;5011574;28;20243;-74
2022/12/18 11:01:57;;;;;;;4.65;1.70;;;-1.90;36.00;;;;;;5007887;28;20280;-71
2022/12/18 11:04:32;;;;;;;4.50;1.55;;;-2.20;37.70;;;;;;5009150;28;20208;-72
2022/12/18 11:07:03;;;;;;;5.05;1.85;;;-2.30;38.40;;;;;;5013956;28;20188;-73
2022/12/18 11:09:39;;;;;;;6.47;1.95;;;-2.20;37.70;;;;;;4997798;28;20531;-74
2022/12/18 11:12:17;;;;;;;4.75;1.75;;;-1.60;37.60;;;;;;5009123;28;20185;-73
2022/12/18 11:14:47;;;;;;;4.10;1.30;;;-1.90;37.10;;;;;;5007155;28;20188;-70
2022/12/18 11:17:27;;;;;;;7.13;3.60;;;-1.60;38.20;;;;;;5010263;28;20614;-70
2022/12/18 11:20:19;;;;;;;3.90;1.20;;;-0.70;36.20;;;;;;5012346;28;20598;-70
2022/12/18 11:23:02;;;;;;;4.20;1.63;;;0.00;34.30;;;;;;5009482;28;20181;-70
2022/12/18 11:25:33;;;;;;;3.55;1.20;;;0.50;32.90;;;;;;5003858;28;20193;-71
2022/12/18 11:28:04;;;;;;;3.50;1.40;;;0.60;32.70;;;;;;5008551;28;20208;-69
2022/12/18 11:30:33;;;;;;;5.18;2.70;;;0.50;34.50;;;;;;5013023;28;20292;-69
2022/12/18 11:33:21;;;;;;;4.40;2.30;;;0.10;35.60;;;;;;5009724;28;20197;-70
2022/12/18 11:36:03;;;;;;;3.60;1.52;;;0.70;36.00;;;;;;5005893;28;20193;-71
2022/12/18 11:38:35;;;;;;;3.42;1.58;;;0.90;38.20;;;;;;5008986;28;20201;-73
2022/12/18 11:41:04;;;;;;;2.95;1.25;;;1.10;37.70;;;;;;5012449;28;20554;-69
2022/12/18 11:43:42;;;;;;;3.55;1.75;;;0.50;37.00;;;;;;5009355;28;20655;-68
2022/12/18 11:46:17;;;;;;;3.50;1.92;;;0.00;40.50;;;;;;5012974;28;20223;-73
2022/12/18 11:49:06;;;;;;;2.80;1.20;;;0.30;37.80;;;;;;5011867;28;20188;-71
2022/12/18 11:52:03;;;;;;;2.90;1.20;;;1.00;35.40;;;;;;5008953;28;20193;-71
2022/12/18 11:54:31;;;;;;;3.65;1.48;;;1.30;33.10;;;;;;4994063;28;20264;-68
2022/12/18 11:57:21;;;;;;;2.83;1.20;;;0.50;35.20;;;;;;5010224;28;20247;-71
2022/12/18 12:00:03;;;;;;;4.40;2.03;;;0.60;33.80;;;;;;5007630;28;20575;-66
2022/12/18 12:02:56;;;;;;;3.65;2.55;;;-0.10;35.80;;;;;;5011045;28;20551;-68
2022/12/18 12:05:50;;;;;;;3.28;1.73;;;-2.00;36.70;;;;;;5011006;28;20197;-74
2022/12/18 12:08:29;;;;;;;7.15;2.47;;;0.90;36.10;;;;;;5008756;28;20189;-71
2022/12/18 12:11:12;;;;;;;2.90;1.30;;;1.80;34.30;;;;;;5009831;28;20235;-68
2022/12/18 12:13:44;;;;;;;7.13;2.70;;;1.50;35.00;;;;;;5006139;28;20223;-67
2022/12/18 12:16:15;;;;;;;4.88;2.45;;;1.20;34.50;;;;;;5010716;28;20197;-74
2022/12/18 12:18:59;;;;;;;2.80;1.38;;;1.60;33.70;;;;;;5009553;28;20280;-68
2022/12/18 12:21:34;;;;;;;2.90;1.50;;;1.60;34.30;;;;;;5006048;28;20476;-68
2022/12/18 12:24:29;;;;;;;3.03;1.55;;;1.40;34.30;;;;;;5011191;28;20189;-70
2022/12/18 12:27:01;;;;;;;2.72;1.30;;;1.20;35.30;;;;;;5009563;28;20205;-69
2022/12/18 12:29:41;;;;;;;2.72;1.35;;;1.50;35.30;;;;;;5005658;28;20233;-68
2022/12/18 12:32:21;;;;;;;2.60;1.30;;;1.20;36.40;;;;;;5001242;28;20189;-72
2022/12/18 12:35:18;;;;;;;3.53;2.25;;;1.60;35.80;;;;;;5006295;28;20173;-73
2022/12/18 12:38:01;;;;;;;3.40;1.95;;;2.40;34.90;;;;;;4995274;28;20619;-73
2022/12/18 12:40:31;;;;;;;3.03;1.63;;;2.30;33.50;;;;;;5010170;28;20181;-70
2022/12/18 12:43:13;;;;;;;6.53;2.53;;;0.90;36.00;;;;;;5009047;28;20193;-75
2022/12/18 12:45:48;;;;;;;2.40;1.10;;;0.70;37.80;;;;;;5005019;28;20164;-72
2022/12/18 12:48:46;;;;;;;2.70;1.50;;;0.50;37.80;;;;;;5011128;28;20181;-75
2022/12/18 12:51:17;;;;;;;2.47;1.25;;;1.10;37.90;;;;;;5005450;28;20189;-69
2022/12/18 12:53:43;;;;;;;2.70;1.67;;;1.40;36.10;;;;;;5011261;28;20667;-69
2022/12/18 12:56:12;;;;;;;2.53;1.33;;;1.80;35.90;;;;;;5011461;28;20225;-69
2022/12/18 12:59:17;;;;;;;10.75;2.67;;;1.80;35.00;;;;;;5001299;28;20236;-70
2022/12/18 13:01:51;;;;;;;2.50;1.40;;;1.10;35.60;;;;;;5008463;28;20176;-70
2022/12/18 13:04:31;;;;;;;2.53;1.35;;;1.40;35.20;;;;;;5010494;28;20181;-72
2022/12/18 13:07:06;;;;;;;3.63;2.40;;;0.80;37.30;;;;;;5006842;28;20283;-75
2022/12/18 13:09:33;;;;;;;6.43;2.75;;;1.00;37.20;;;;;;5005238;28;20181;-70
2022/12/18 13:15:13;;;;;;;4.45;3.15;;;1.90;35.10;;;;;;5004658;28;20565;-71